Time;durP1;ratioP1;P1;durP2;ratioP2;P2;SDS_P1;SDS_P2;PMS_P1;PMS_P2;Temp;Humidity;BMP_temperature;BMP_pressure;BME280_temperature;BME280_humidity;BME280_pressure;Samples;Min_cycle;Max_cycle;Signal;HPM_P1;HPM_P2
2022/06/17 00:00:18;;;;;;;4.40;3.15;;;;;19.30;96874.00;;;;8346833;28;20211;-74
2022/06/17 00:04:21;;;;;;;4.68;3.97;;;;;19.20;96893.00;;;;8338318;28;20678;-74
2022/06/17 00:08:31;;;;;;;3.58;3.20;;;;;19.00;96888.00;;;;8337707;28;20203;-70
2022/06/17 00:12:36;;;;;;;8.65;3.30;;;;;18.90;96889.00;;;;8337932;28;20574;-71
2022/06/17 00:16:39;;;;;;;4.35;3.25;;;;;18.80;96899.00;;;;8340390;28;20651;-70
2022/06/17 00:20:43;;;;;;;6.05;3.60;;;;;18.70;96905.00;;;;8355608;28;20204;-72
2022/06/17 00:24:54;;;;;;;8.30;3.55;;;;;18.70;96911.00;;;;8353024;28;20813;-73
2022/06/17 00:28:58;;;;;;;4.15;3.10;;;;;18.60;96918.00;;;;8353548;28;20276;-71
2022/06/17 00:33:03;;;;;;;4.35;3.50;;;;;18.50;96916.00;;;;8341471;28;20201;-72
2022/06/17 00:37:07;;;;;;;5.13;3.35;;;;;18.40;96917.00;;;;8335446;28;20238;-72
2022/06/17 00:41:17;;;;;;;4.75;3.30;;;;;18.30;96922.00;;;;8344308;28;20307;-75
2022/06/17 00:45:28;;;;;;;6.03;3.60;;;;;18.30;96920.00;;;;8346988;28;20204;-72
2022/06/17 00:49:44;;;;;;;4.30;3.30;;;;;18.20;96915.00;;;;8346740;28;20734;-73
2022/06/17 00:53:52;;;;;;;4.15;3.67;;;;;18.20;96915.00;;;;8347644;28;20207;-76
2022/06/17 00:57:55;;;;;;;4.38;3.33;;;;;18.20;96931.00;;;;8353544;28;20201;-72
2022/06/17 01:02:05;;;;;;;4.50;3.65;;;;;18.20;96920.00;;;;8349815;28;20268;-70
2022/06/17 01:06:12;;;;;;;3.95;3.65;;;;;18.10;96938.00;;;;8338515;28;20236;-73
2022/06/17 01:10:17;;;;;;;5.38;3.17;;;;;18.10;96939.00;;;;8358172;28;20303;-75
2022/06/17 01:14:21;;;;;;;3.45;3.15;;;;;18.10;96935.00;;;;8342493;28;20236;-71
2022/06/17 01:18:28;;;;;;;3.55;3.25;;;;;18.10;96934.00;;;;8355551;28;20206;-70
2022/06/17 01:22:39;;;;;;;7.95;3.97;;;;;18.10;96938.00;;;;8359118;28;20228;-74
2022/06/17 01:26:42;;;;;;;7.13;3.40;;;;;18.10;96935.00;;;;8359005;28;20660;-71
2022/06/17 01:30:50;;;;;;;8.65;3.30;;;;;18.20;96934.00;;;;8355882;28;20300;-75
2022/06/17 01:34:53;;;;;;;8.43;3.88;;;;;18.20;96936.00;;;;8355885;28;20707;-73
2022/06/17 01:39:00;;;;;;;8.10;3.55;;;;;18.20;96923.00;;;;8361535;28;20626;-72
2022/06/17 01:43:08;;;;;;;6.80;3.55;;;;;18.20;96905.00;;;;8359428;28;20573;-70
2022/06/17 01:47:15;;;;;;;5.50;3.55;;;;;18.20;96913.00;;;;8350053;28;20193;-70
2022/06/17 01:51:21;;;;;;;6.35;3.58;;;;;18.10;96907.00;;;;8351716;28;20704;-70
2022/06/17 01:55:31;;;;;;;4.63;3.28;;;;;18.10;96908.00;;;;8357127;28;20657;-77
2022/06/17 01:59:39;;;;;;;4.63;3.42;;;;;18.00;96916.00;;;;8351416;28;20197;-72
2022/06/17 02:03:49;;;;;;;5.03;3.00;;;;;17.90;96921.00;;;;8351251;28;20914;-71
2022/06/17 02:07:55;;;;;;;5.82;3.53;;;;;17.90;96915.00;;;;8361179;28;20197;-73
2022/06/17 02:12:01;;;;;;;4.78;3.30;;;;;17.80;96917.00;;;;8357862;28;20273;-70
2022/06/17 02:16:07;;;;;;;3.95;3.20;;;;;17.80;96908.00;;;;8353520;28;20657;-73
2022/06/17 02:20:14;;;;;;;7.53;3.25;;;;;17.70;96907.00;;;;8354211;28;20283;-72
2022/06/17 02:24:19;;;;;;;5.93;3.78;;;;;17.60;96908.00;;;;8366308;28;20574;-74
2022/06/17 02:28:26;;;;;;;4.43;3.58;;;;;17.50;96904.00;;;;8348610;28;20726;-71
2022/06/17 02:32:31;;;;;;;5.90;3.38;;;;;17.50;96916.00;;;;8353919;28;20215;-71
2022/06/17 02:36:41;;;;;;;7.60;3.70;;;;;17.40;96916.00;;;;8342347;28;20205;-71
2022/06/17 02:40:49;;;;;;;3.80;2.88;;;;;17.30;96898.00;;;;8345890;28;20292;-74
2022/06/17 02:44:58;;;;;;;6.90;3.38;;;;;17.30;96907.00;;;;8353451;28;20315;-73
2022/06/17 02:49:04;;;;;;;4.25;3.35;;;;;17.20;96916.00;;;;8350918;28;20228;-70
2022/06/17 02:53:07;;;;;;;3.85;3.40;;;;;17.20;96927.00;;;;8343013;28;20978;-71
2022/06/17 02:57:20;;;;;;;5.50;3.25;;;;;17.10;96930.00;;;;8341269;28;20208;-70
2022/06/17 03:01:28;;;;;;;6.78;3.30;;;;;17.00;96926.00;;;;8377460;23;20280;-74
2022/06/17 03:05:35;;;;;;;4.90;3.50;;;;;17.00;96936.00;;;;8305496;28;20539;-74
2022/06/17 03:09:38;;;;;;;6.55;3.42;;;;;16.90;96933.00;;;;8320329;28;20570;-81
2022/06/17 03:13:46;;;;;;;5.05;3.33;;;;;16.90;96932.00;;;;8319234;28;20589;-75
2022/06/17 03:17:51;;;;;;;6.13;3.47;;;;;16.80;96940.00;;;;8324691;28;20205;-71
2022/06/17 03:21:55;;;;;;;4.78;3.60;;;;;16.80;96938.00;;;;8316460;28;20259;-70
2022/06/17 03:26:02;;;;;;;3.50;3.20;;;;;16.70;96940.00;;;;8304625;28;20227;-71
2022/06/17 03:30:07;;;;;;;4.25;3.38;;;;;16.60;96938.00;;;;8317890;28;20225;-73
2022/06/17 03:34:17;;;;;;;4.93;3.60;;;;;16.60;96945.00;;;;8306642;28;22058;-72
2022/06/17 03:38:28;;;;;;;4.88;3.42;;;;;16.50;96954.00;;;;8318047;28;20207;-72
2022/06/17 03:42:34;;;;;;;5.55;3.40;;;;;16.50;96956.00;;;;8313670;28;20316;-72
2022/06/17 03:46:43;;;;;;;4.05;3.55;;;;;16.40;96958.00;;;;8314327;28;20233;-72
2022/06/17 03:50:49;;;;;;;6.28;3.80;;;;;16.40;96964.00;;;;8305598;28;20201;-76
2022/06/17 03:54:53;;;;;;;7.30;3.33;;;;;16.50;96953.00;;;;8309783;28;20230;-73
2022/06/17 03:59:00;;;;;;;7.28;3.65;;;;;16.60;96967.00;;;;8324175;28;20201;-76
2022/06/17 04:03:05;;;;;;;3.90;2.90;;;;;16.80;96973.00;;;;8320401;28;20328;-69
2022/06/17 04:07:12;;;;;;;4.95;3.10;;;;;17.10;96972.00;;;;8309132;28;20204;-76
2022/06/17 04:11:16;;;;;;;3.75;2.90;;;;;17.40;96985.00;;;;8310494;28;20684;-74
2022/06/17 04:15:32;;;;;;;7.00;3.20;;;;;17.70;96993.00;;;;8311403;28;20206;-74
2022/06/17 04:19:35;;;;;;;4.18;2.85;;;;;18.00;96990.00;;;;8314392;28;20304;-73
2022/06/17 04:23:41;;;;;;;5.00;3.47;;;;;18.30;96987.00;;;;8316067;28;20224;-70
2022/06/17 04:27:57;;;;;;;3.50;2.95;;;;;18.60;97001.00;;;;8319035;28;20534;-70
2022/06/17 04:32:06;;;;;;;4.15;3.25;;;;;18.80;97004.00;;;;8307870;28;20299;-71
2022/06/17 04:36:14;;;;;;;4.25;3.15;;;;;19.10;97009.00;;;;8324698;28;20197;-71
2022/06/17 04:40:24;;;;;;;5.15;3.13;;;;;19.30;97005.00;;;;8313642;28;20615;-72
2022/06/17 04:44:28;;;;;;;3.50;2.92;;;;;19.50;97009.00;;;;8318565;28;20251;-74
2022/06/17 04:48:31;;;;;;;3.08;2.78;;;;;19.60;97019.00;;;;8330399;28;20199;-72
2022/06/17 04:52:37;;;;;;;7.32;3.55;;;;;19.50;97018.00;;;;8324598;28;20213;-72
2022/06/17 04:56:45;;;;;;;5.50;2.72;;;;;19.60;97013.00;;;;8323274;28;20208;-72
2022/06/17 05:00:54;;;;;;;6.78;3.00;;;;;19.80;97022.00;;;;8320582;28;20209;-71
2022/06/17 05:05:00;;;;;;;6.38;3.13;;;;;19.80;97026.00;;;;8311178;28;20354;-72
2022/06/17 05:09:20;;;;;;;4.50;2.75;;;;;19.80;97020.00;;;;8322416;28;20332;-73
2022/06/17 05:13:28;;;;;;;7.57;2.88;;;;;19.90;97012.00;;;;8330677;28;20292;-74
2022/06/17 05:17:32;;;;;;;3.80;2.83;;;;;20.00;97020.00;;;;8312469;28;20562;-74
2022/06/17 05:21:35;;;;;;;10.15;3.20;;;;;20.10;97016.00;;;;8320539;28;20201;-76
2022/06/17 05:25:40;;;;;;;3.15;2.78;;;;;20.40;97023.00;;;;8319155;28;20220;-75
2022/06/17 05:29:45;;;;;;;4.35;2.95;;;;;20.70;97026.00;;;;8308340;28;20205;-74
2022/06/17 05:33:48;;;;;;;5.78;2.72;;;;;20.90;97033.00;;;;8314858;28;20289;-70
2022/06/17 05:37:51;;;;;;;8.07;3.45;;;;;21.20;97042.00;;;;8311823;28;20204;-73
2022/06/17 05:41:55;;;;;;;3.35;3.05;;;;;21.40;97034.00;;;;8314783;28;20197;-73
2022/06/17 05:46:00;;;;;;;4.20;2.90;;;;;21.70;97042.00;;;;8322901;28;20235;-70
2022/06/17 05:50:03;;;;;;;3.08;2.75;;;;;22.00;97051.00;;;;8319047;28;20198;-71
2022/06/17 05:54:07;;;;;;;5.95;2.75;;;;;22.40;97053.00;;;;8299819;28;20539;-72
2022/06/17 05:58:10;;;;;;;7.18;2.97;;;;;22.60;97070.00;;;;8310030;28;20306;-71
2022/06/17 06:02:14;;;;;;;8.05;2.90;;;;;22.60;97065.00;;;;8311506;28;20311;-73
2022/06/17 06:06:18;;;;;;;8.23;2.72;;;;;23.00;97072.00;;;;8314760;28;20239;-73
2022/06/17 06:10:23;;;;;;;3.95;2.78;;;;;23.30;97078.00;;;;8326112;28;20281;-70
2022/06/17 06:14:26;;;;;;;3.78;2.45;;;;;23.40;97080.00;;;;8322445;28;20659;-70
2022/06/17 06:18:32;;;;;;;3.13;2.90;;;;;23.30;97091.00;;;;8329441;28;20207;-70
2022/06/17 06:22:35;;;;;;;10.52;2.88;;;;;23.30;97100.00;;;;8324422;28;20292;-70
2022/06/17 06:26:40;;;;;;;4.13;3.17;;;;;23.40;97105.00;;;;8309368;28;20337;-71
2022/06/17 06:30:51;;;;;;;5.88;3.00;;;;;23.70;97097.00;;;;8312691;28;20618;-74
2022/06/17 06:34:56;;;;;;;3.90;3.10;;;;;23.80;97107.00;;;;8324853;28;20190;-73
2022/06/17 06:38:59;;;;;;;10.20;3.08;;;;;23.80;97115.00;;;;8317760;28;20212;-73
2022/06/17 06:43:03;;;;;;;3.65;3.00;;;;;24.10;97114.00;;;;8319734;28;20293;-71
2022/06/17 06:47:07;;;;;;;6.22;3.30;;;;;24.20;97107.00;;;;8315330;28;20229;-77
2022/06/17 06:51:12;;;;;;;7.50;2.90;;;;;24.30;97105.00;;;;8310287;28;20247;-72
2022/06/17 06:55:16;;;;;;;5.15;2.85;;;;;24.50;97109.00;;;;8311411;28;20720;-78
2022/06/17 06:59:19;;;;;;;6.43;2.97;;;;;24.70;97118.00;;;;8314495;28;20563;-73
2022/06/17 07:03:23;;;;;;;4.55;2.60;;;;;24.80;97116.00;;;;8311414;28;20249;-75
2022/06/17 07:07:29;;;;;;;4.28;2.85;;;;;24.90;97111.00;;;;8318301;28;20193;-76
2022/06/17 07:11:32;;;;;;;3.90;2.90;;;;;25.30;97111.00;;;;8311289;28;20228;-74
2022/06/17 07:15:35;;;;;;;2.85;2.50;;;;;25.00;97126.00;;;;8307465;28;20201;-71
2022/06/17 07:19:39;;;;;;;4.35;2.70;;;;;25.30;97125.00;;;;8319757;28;20215;-72
2022/06/17 07:23:45;;;;;;;2.90;2.60;;;;;25.90;97137.00;;;;8320027;28;20268;-72
2022/06/17 07:27:49;;;;;;;3.90;2.83;;;;;26.00;97147.00;;;;8311202;28;20928;-72
2022/06/17 07:31:53;;;;;;;4.00;2.80;;;;;26.10;97149.00;;;;8319361;28;20201;-69
2022/06/17 07:36:00;;;;;;;5.13;2.47;;;;;26.30;97141.00;;;;8309554;28;20288;-71
2022/06/17 07:40:05;;;;;;;5.22;2.85;;;;;26.50;97144.00;;;;8327942;28;20291;-71
2022/06/17 07:44:08;;;;;;;4.57;2.40;;;;;27.10;97152.00;;;;8325977;28;20220;-72
2022/06/17 07:48:13;;;;;;;3.25;2.65;;;;;27.60;97139.00;;;;8311461;28;20196;-75
2022/06/17 07:52:16;;;;;;;3.03;2.42;;;;;28.00;97147.00;;;;8320349;28;20193;-73
2022/06/17 07:56:22;;;;;;;2.72;2.45;;;;;28.00;97149.00;;;;8309373;28;20232;-72
2022/06/17 08:00:27;;;;;;;3.88;2.63;;;;;28.20;97144.00;;;;8312675;28;20356;-72
2022/06/17 08:04:32;;;;;;;4.85;2.72;;;;;28.50;97153.00;;;;8312547;28;20717;-71
2022/06/17 08:08:35;;;;;;;4.32;2.65;;;;;28.50;97155.00;;;;8307422;28;20297;-72
2022/06/17 08:12:40;;;;;;;4.53;2.60;;;;;28.40;97149.00;;;;8311467;28;20288;-73
2022/06/17 08:16:44;;;;;;;4.07;2.70;;;;;29.30;97155.00;;;;8303613;28;20816;-72
2022/06/17 08:20:48;;;;;;;3.90;2.38;;;;;29.80;97162.00;;;;8314322;28;20202;-73
2022/06/17 08:24:51;;;;;;;4.75;2.78;;;;;30.50;97164.00;;;;8314806;28;20228;-73
2022/06/17 08:28:56;;;;;;;2.92;2.33;;;;;30.50;97163.00;;;;8289114;28;20208;-73
2022/06/17 08:33:00;;;;;;;15.63;2.72;;;;;30.30;97174.00;;;;8313733;28;20209;-73
2022/06/17 08:37:22;;;;;;;6.40;2.50;;;;;30.20;97179.00;;;;8307150;28;21093;-74
2022/06/17 08:41:28;;;;;;;5.57;2.55;;;;;30.00;97172.00;;;;8306333;28;20208;-73
2022/06/17 08:45:41;;;;;;;5.00;2.38;;;;;30.20;97180.00;;;;8297825;28;20229;-74
2022/06/17 08:50:00;;;;;;;3.28;2.30;;;;;30.70;97183.00;;;;8301637;28;20207;-75
2022/06/17 08:54:17;;;;;;;5.22;3.03;;;;;31.30;97191.00;;;;8301941;28;20286;-73
2022/06/17 08:58:30;;;;;;;4.32;2.50;;;;;31.90;97183.00;;;;8306395;28;20260;-81
2022/06/17 09:02:49;;;;;;;3.47;2.42;;;;;32.10;97186.00;;;;8316767;28;20263;-80
2022/06/17 09:07:08;;;;;;;6.53;3.00;;;;;31.70;97195.00;;;;8301561;28;20229;-81
2022/06/17 09:11:20;;;;;;;4.30;2.45;;;;;31.40;97188.00;;;;8318050;28;20324;-82
2022/06/17 09:15:31;;;;;;;9.70;2.13;;;;;31.20;97182.00;;;;8308808;28;20200;-85
2022/06/17 09:19:42;;;;;;;3.20;2.45;;;;;31.20;97183.00;;;;8317835;28;20212;-83
2022/06/17 09:23:45;;;;;;;2.70;2.50;;;;;30.80;97182.00;;;;8313102;28;20648;-80
2022/06/17 09:27:51;;;;;;;3.20;2.13;;;;;31.10;97182.00;;;;8322550;28;20206;-81
2022/06/17 09:32:00;;;;;;;4.35;2.33;;;;;31.50;97178.00;;;;8310424;28;20207;-85
2022/06/17 09:36:10;;;;;;;5.60;2.47;;;;;31.30;97186.00;;;;8313522;28;20236;-80
2022/06/17 09:40:18;;;;;;;2.33;2.10;;;;;31.10;97177.00;;;;8311987;28;20202;-84
2022/06/17 09:44:25;;;;;;;7.35;2.65;;;;;31.40;97168.00;;;;8322696;28;20229;-86
2022/06/17 09:48:39;;;;;;;3.58;2.45;;;;;31.90;97171.00;;;;8307054;28;20722;-84
2022/06/17 09:52:52;;;;;;;4.25;2.40;;;;;31.90;97167.00;;;;8303679;28;20210;-84
2022/06/17 09:56:59;;;;;;;4.93;2.10;;;;;32.00;97166.00;;;;8317587;28;20285;-79
2022/06/17 10:01:04;;;;;;;3.95;2.58;;;;;31.70;97172.00;;;;8318953;28;20624;-80
2022/06/17 10:05:14;;;;;;;3.40;2.10;;;;;31.80;97161.00;;;;8311929;28;20861;-80
2022/06/17 10:09:38;;;;;;;2.85;2.30;;;;;32.70;97159.00;;;;8318338;28;20562;-82
2022/06/17 10:13:49;;;;;;;6.57;2.35;;;;;32.30;97158.00;;;;8321591;28;20207;-77
2022/06/17 10:22:35;;;;;;;2.30;2.10;;;;;33.20;97154.00;;;;8311005;28;20206;-76
2022/06/17 10:26:54;;;;;;;4.15;2.28;;;;;33.10;97151.00;;;;8306594;28;20316;-79
2022/06/17 10:31:00;;;;;;;2.25;2.15;;;;;32.80;97149.00;;;;8300717;28;20229;-79
2022/06/17 10:35:07;;;;;;;2.65;2.40;;;;;33.40;97138.00;;;;8305790;28;20256;-78
2022/06/17 10:39:13;;;;;;;6.07;2.33;;;;;34.20;97143.00;;;;8308803;28;20212;-79
2022/06/17 10:43:21;;;;;;;3.58;2.20;;;;;34.20;97148.00;;;;8317805;28;20668;-79
2022/06/17 10:47:36;;;;;;;6.65;2.33;;;;;34.50;97142.00;;;;8310146;28;20313;-79
2022/06/17 10:51:40;;;;;;;3.75;1.90;;;;;34.50;97148.00;;;;8314538;28;20289;-80
2022/06/17 10:55:46;;;;;;;2.78;2.00;;;;;34.70;97143.00;;;;8304216;28;20223;-80
2022/06/17 10:59:58;;;;;;;1.98;1.77;;;;;35.10;97141.00;;;;8308269;28;20198;-76
2022/06/17 11:04:12;;;;;;;1.65;1.60;;;;;35.50;97146.00;;;;8312314;28;20233;-80
2022/06/17 11:08:22;;;;;;;3.17;2.30;;;;;35.80;97151.00;;;;8313722;28;20225;-81
2022/06/17 11:12:36;;;;;;;6.00;2.58;;;;;35.40;97157.00;;;;8309111;28;20678;-80
2022/06/17 11:16:43;;;;;;;9.85;2.60;;;;;35.70;97152.00;;;;8311197;28;20212;-81
2022/06/17 11:20:56;;;;;;;3.67;2.30;;;;;35.70;97156.00;;;;8311095;28;20223;-84
2022/06/17 11:25:03;;;;;;;4.68;2.85;;;;;35.20;97163.00;;;;8314453;28;20312;-79
2022/06/17 11:29:20;;;;;;;4.57;2.08;;;;;34.60;97161.00;;;;8311644;28;20319;-80
2022/06/17 11:33:27;;;;;;;2.75;2.17;;;;;35.00;97152.00;;;;8310447;28;20197;-83
2022/06/17 11:37:34;;;;;;;2.33;2.13;;;;;35.50;97149.00;;;;8312989;28;20204;-81
2022/06/17 11:41:43;;;;;;;3.55;2.28;;;;;36.00;97143.00;;;;8311411;28;20345;-82
2022/06/17 11:45:46;;;;;;;2.30;2.10;;;;;35.20;97140.00;;;;8310372;28;20226;-87
2022/06/17 11:49:58;;;;;;;2.03;1.85;;;;;35.30;97134.00;;;;8312670;28;20730;-81
2022/06/17 11:54:06;;;;;;;2.47;1.63;;;;;36.20;97136.00;;;;8313594;28;20201;-80
2022/06/17 11:58:11;;;;;;;2.30;1.95;;;;;36.60;97136.00;;;;8311289;28;20201;-82
2022/06/17 12:02:14;;;;;;;3.42;1.92;;;;;36.50;97134.00;;;;8317678;28;20939;-81
2022/06/17 12:06:26;;;;;;;2.78;2.05;;;;;37.30;97133.00;;;;8316559;28;20247;-78
2022/06/17 12:10:49;;;;;;;3.58;1.65;;;;;38.20;97126.00;;;;8313848;28;20288;-79
2022/06/17 12:15:00;;;;;;;3.83;2.50;;;;;38.00;97124.00;;;;8310534;28;20626;-81
2022/06/17 12:19:04;;;;;;;1.73;1.63;;;;;38.30;97122.00;;;;8315209;28;20229;-85
2022/06/17 12:23:13;;;;;;;4.55;2.13;;;;;37.60;97121.00;;;;8303746;28;20252;-76
2022/06/17 12:27:24;;;;;;;3.97;2.60;;;;;37.00;97121.00;;;;8318950;28;20294;-76
2022/06/17 12:31:52;;;;;;;3.00;2.70;;;;;37.20;97122.00;;;;8302507;28;20198;-75
2022/06/17 12:36:03;;;;;;;2.25;2.10;;;;;36.90;97125.00;;;;8298431;28;20198;-77
2022/06/17 12:40:14;;;;;;;2.28;2.05;;;;;37.00;97119.00;;;;8301108;28;20229;-76
2022/06/17 12:44:29;;;;;;;1.98;1.88;;;;;36.80;97123.00;;;;8310939;28;20292;-77
2022/06/17 12:48:42;;;;;;;2.13;1.85;;;;;36.90;97120.00;;;;8296468;28;21005;-76
2022/06/17 12:57:20;;;;;;;1.92;1.70;;;;;35.90;97114.00;;;;8317012;28;20717;-76
2022/06/17 13:01:29;;;;;;;3.28;1.85;;;;;35.50;97115.00;;;;8307564;28;20681;-75
2022/06/17 13:05:37;;;;;;;1.85;1.60;;;;;35.20;97111.00;;;;8315004;28;20574;-76
2022/06/17 13:09:54;;;;;;;2.13;1.83;;;;;35.80;97110.00;;;;8309416;28;20201;-74
2022/06/17 13:14:08;;;;;;;2.20;1.65;;;;;36.80;97103.00;;;;8320832;28;20305;-76
2022/06/17 13:18:17;;;;;;;1.83;1.73;;;;;37.90;97097.00;;;;8311990;28;20204;-75
2022/06/17 13:22:26;;;;;;;6.18;1.88;;;;;38.60;97099.00;;;;8312710;28;20198;-75
2022/06/17 13:26:37;;;;;;;5.20;1.50;;;;;39.10;97101.00;;;;8323072;28;20309;-75
2022/06/17 13:30:45;;;;;;;1.95;1.90;;;;;37.90;97092.00;;;;8318862;28;20240;-74
2022/06/17 13:34:53;;;;;;;1.85;1.70;;;;;37.90;97091.00;;;;8313098;28;20981;-80
2022/06/17 13:39:30;;;;;;;2.53;1.70;;;;;37.50;97084.00;;;;8314272;28;20604;-78
2022/06/17 13:43:39;;;;;;;1.58;1.48;;;;;37.70;97087.00;;;;8306918;28;20286;-81
2022/06/17 13:47:55;;;;;;;1.95;1.80;;;;;37.50;97094.00;;;;8313695;28;20244;-79
2022/06/17 13:52:08;;;;;;;4.97;1.85;;;;;37.40;97091.00;;;;8316616;28;20281;-80
2022/06/17 13:56:17;;;;;;;1.90;1.80;;;;;37.00;97085.00;;;;8319263;28;20204;-78
2022/06/17 14:00:42;;;;;;;2.70;1.77;;;;;36.80;97088.00;;;;8301431;28;20664;-84
2022/06/17 14:05:24;;;;;;;3.40;1.85;;;;;36.70;97089.00;;;;8309943;28;20629;-82
2022/06/17 14:09:37;;;;;;;3.35;2.10;;;;;36.30;97078.00;;;;8310686;28;20297;-81
2022/06/17 14:13:41;;;;;;;2.00;1.73;;;;;36.50;97082.00;;;;8315104;28;20205;-80
2022/06/17 14:17:48;;;;;;;4.15;2.00;;;;;37.00;97075.00;;;;8305277;28;20205;-79
2022/06/17 14:21:55;;;;;;;3.10;1.88;;;;;37.40;97069.00;;;;8309394;28;20285;-83
2022/06/17 14:26:02;;;;;;;2.85;1.83;;;;;38.10;97068.00;;;;8313322;28;20785;-81
2022/06/17 14:30:42;;;;;;;3.25;1.58;;;;;38.10;97064.00;;;;8303785;28;20292;-82
2022/06/17 14:35:26;;;;;;;1.42;1.42;;;;;38.20;97062.00;;;;8316552;28;20221;-82
2022/06/17 14:39:54;;;;;;;3.08;1.67;;;;;38.80;97067.00;;;;8315186;28;20198;-80
2022/06/17 14:44:01;;;;;;;3.20;1.90;;;;;38.80;97073.00;;;;8307031;28;20289;-83
2022/06/17 14:48:19;;;;;;;1.67;1.63;;;;;37.00;97074.00;;;;8308925;28;20261;-80
2022/06/17 14:52:26;;;;;;;5.45;1.60;;;;;36.60;97075.00;;;;8310323;28;20675;-82
2022/06/17 14:56:46;;;;;;;1.90;1.60;;;;;37.20;97065.00;;;;8309767;28;20197;-86
2022/06/17 15:00:52;;;;;;;1.80;1.75;;;;;37.80;97064.00;;;;8315823;28;20694;-85
2022/06/17 15:04:58;;;;;;;2.65;1.67;;;;;38.00;97066.00;;;;8310663;28;20229;-84
2022/06/17 15:09:02;;;;;;;5.32;1.58;;;;;37.60;97065.00;;;;8323386;28;20313;-83
2022/06/17 15:17:41;;;;;;;2.97;1.73;;;;;36.90;97069.00;;;;8325537;28;20240;-84
2022/06/17 15:21:51;;;;;;;1.58;1.48;;;;;37.20;97061.00;;;;8323394;28;20311;-83
2022/06/17 15:26:07;;;;;;;1.67;1.58;;;;;37.60;97056.00;;;;8312690;28;20202;-84
2022/06/17 15:30:25;;;;;;;2.55;1.38;;;;;37.60;97055.00;;;;8319363;28;20223;-83
2022/06/17 15:34:32;;;;;;;2.40;1.70;;;;;37.80;97054.00;;;;8320381;28;20231;-85
2022/06/17 15:38:38;;;;;;;2.45;1.50;;;;;37.90;97049.00;;;;8318290;28;20197;-85
2022/06/17 15:42:57;;;;;;;2.92;1.60;;;;;38.10;97046.00;;;;8317421;28;20210;-81
2022/06/17 15:47:15;;;;;;;3.42;1.70;;;;;38.20;97042.00;;;;8317511;28;20664;-80
2022/06/17 15:51:19;;;;;;;8.55;1.77;;;;;37.20;97042.00;;;;8323101;28;20275;-84
2022/06/17 15:55:26;;;;;;;4.35;1.67;;;;;37.00;97044.00;;;;8322677;28;20201;-82
2022/06/17 15:59:51;;;;;;;5.95;1.92;;;;;36.90;97041.00;;;;8319156;28;20713;-72
2022/06/17 16:03:58;;;;;;;1.40;1.40;;;;;37.40;97040.00;;;;8303299;28;20627;-84
2022/06/17 16:08:04;;;;;;;3.15;1.85;;;;;37.70;97042.00;;;;8320593;28;20724;-89
2022/06/17 16:12:30;;;;;;;2.70;1.50;;;;;37.40;97047.00;;;;8318101;28;20591;-89
2022/06/17 16:16:44;;;;;;;1.70;1.60;;;;;37.20;97046.00;;;;8319596;28;20244;-84
2022/06/17 16:20:49;;;;;;;5.82;1.63;;;;;37.10;97036.00;;;;8318870;28;20550;-81
2022/06/17 16:24:58;;;;;;;1.48;1.40;;;;;37.40;97041.00;;;;8320435;28;20328;-84
2022/06/17 16:29:14;;;;;;;1.35;1.33;;;;;37.20;97042.00;;;;8318529;28;20257;-82
2022/06/17 16:33:24;;;;;;;1.52;1.38;;;;;37.00;97048.00;;;;8317174;28;20277;-86
2022/06/17 16:37:33;;;;;;;1.98;1.50;;;;;37.10;97044.00;;;;8317251;28;20201;-83
2022/06/17 16:46:06;;;;;;;1.52;1.52;;;;;37.30;97042.00;;;;8317748;28;20232;-84
2022/06/17 16:50:09;;;;;;;1.50;1.40;;;;;37.40;97042.00;;;;8316282;28;20345;-85
2022/06/17 16:54:16;;;;;;;1.30;1.30;;;;;37.30;97043.00;;;;8318185;28;20654;-83
2022/06/17 16:58:19;;;;;;;2.35;1.35;;;;;37.60;97047.00;;;;8317876;28;20283;-82
2022/06/17 17:02:23;;;;;;;1.38;1.33;;;;;37.80;97047.00;;;;8316013;28;20440;-79
2022/06/17 17:06:27;;;;;;;1.45;1.35;;;;;37.70;97051.00;;;;8318186;28;20201;-83
2022/06/17 17:10:32;;;;;;;1.67;1.20;;;;;36.90;97050.00;;;;8309165;28;20194;-85
2022/06/17 17:14:35;;;;;;;2.20;1.60;;;;;36.60;97049.00;;;;8319119;28;20919;-81
2022/06/17 17:18:40;;;;;;;2.58;1.60;;;;;36.80;97051.00;;;;8318619;28;20275;-87
2022/06/17 17:22:46;;;;;;;1.48;1.48;;;;;37.10;97053.00;;;;8314419;28;20818;-85
2022/06/17 17:26:54;;;;;;;1.50;1.40;;;;;37.10;97051.00;;;;8309144;28;20289;-83
2022/06/17 17:30:57;;;;;;;2.40;1.40;;;;;37.10;97052.00;;;;8311913;28;20293;-82
2022/06/17 17:35:01;;;;;;;3.63;1.60;;;;;36.90;97060.00;;;;8317429;28;20205;-86
2022/06/17 17:39:04;;;;;;;2.10;1.45;;;;;36.90;97054.00;;;;8313606;28;20197;-87
2022/06/17 17:43:12;;;;;;;3.20;1.50;;;;;37.10;97052.00;;;;8318052;28;20205;-78
2022/06/17 17:47:24;;;;;;;1.45;1.35;;;;;37.00;97060.00;;;;8319851;28;21089;-84
2022/06/17 17:51:29;;;;;;;2.28;1.70;;;;;35.80;97058.00;;;;8318649;28;20194;-81
2022/06/17 17:55:34;;;;;;;9.50;1.42;;;;;34.70;97059.00;;;;8322393;28;20220;-84
2022/06/17 17:59:39;;;;;;;1.35;1.25;;;;;33.80;97065.00;;;;8320439;28;20202;-87
2022/06/17 18:03:42;;;;;;;1.92;1.38;;;;;32.80;97071.00;;;;8322008;28;20319;-91
2022/06/17 18:07:45;;;;;;;1.70;1.40;;;;;32.00;97064.00;;;;8322833;28;20229;-88
2022/06/17 18:11:51;;;;;;;2.22;1.73;;;;;31.30;97058.00;;;;8322921;28;20206;-82
2022/06/17 18:15:56;;;;;;;2.40;1.20;;;;;30.50;97054.00;;;;8318108;28;20235;-85
2022/06/17 18:20:00;;;;;;;1.48;1.45;;;;;29.80;97054.00;;;;8321612;28;20251;-86
2022/06/17 18:24:04;;;;;;;2.58;1.60;;;;;28.90;97053.00;;;;8319391;28;20210;-88
2022/06/17 18:28:08;;;;;;;1.60;1.50;;;;;28.10;97046.00;;;;8313723;28;20345;-79
2022/06/17 18:32:15;;;;;;;2.08;1.40;;;;;27.60;97044.00;;;;8324999;28;20215;-80
2022/06/17 18:36:19;;;;;;;1.40;1.33;;;;;27.10;97046.00;;;;8314448;28;20614;-87
2022/06/17 18:40:32;;;;;;;3.53;1.60;;;;;26.70;97044.00;;;;8318517;28;20776;-83
2022/06/17 18:44:35;;;;;;;1.65;1.55;;;;;26.30;97044.00;;;;8318940;28;20236;-81
2022/06/17 18:48:40;;;;;;;1.45;1.45;;;;;25.90;97041.00;;;;8315801;28;20331;-88
2022/06/17 18:52:47;;;;;;;1.92;1.70;;;;;25.80;97048.00;;;;8317608;28;20665;-86
2022/06/17 18:56:51;;;;;;;5.18;1.88;;;;;25.70;97053.00;;;;8315357;28;20224;-77
2022/06/17 19:00:55;;;;;;;1.58;1.45;;;;;25.60;97058.00;;;;8314437;28;20280;-84
2022/06/17 19:05:00;;;;;;;2.22;1.70;;;;;25.50;97047.00;;;;8314377;28;20336;-81
2022/06/17 19:17:49;;;;;;;1.98;1.65;;;;;24.90;97050.00;;;;8317860;28;20282;-87
2022/06/17 19:21:53;;;;;;;2.55;1.70;;;;;24.60;97049.00;;;;8317417;28;20205;-83
2022/06/17 19:25:57;;;;;;;2.58;1.50;;;;;24.30;97045.00;;;;8332287;28;20281;-82
2022/06/17 19:30:00;;;;;;;3.92;1.67;;;;;23.90;97044.00;;;;8307655;28;20229;-83
2022/06/17 19:34:04;;;;;;;4.07;1.50;;;;;23.40;97047.00;;;;8320379;28;20205;-82
2022/06/17 19:38:11;;;;;;;1.95;1.40;;;;;23.00;97064.00;;;;8312940;28;20205;-79
2022/06/17 19:42:17;;;;;;;1.40;1.40;;;;;22.70;97080.00;;;;8320906;28;20197;-81
2022/06/17 19:46:20;;;;;;;3.60;1.70;;;;;22.40;97082.00;;;;8321157;28;20201;-82
2022/06/17 19:50:26;;;;;;;1.60;1.50;;;;;22.10;97080.00;;;;8319349;28;20221;-81
2022/06/17 19:54:31;;;;;;;1.60;1.50;;;;;21.80;97080.00;;;;8319214;28;20240;-79
2022/06/17 19:58:35;;;;;;;1.42;1.42;;;;;21.50;97086.00;;;;8315499;28;20239;-82
2022/06/17 20:02:40;;;;;;;2.20;1.40;;;;;21.20;97088.00;;;;8314001;28;20225;-83
2022/06/17 20:06:44;;;;;;;1.52;1.40;;;;;20.80;97086.00;;;;8316081;28;20197;-81
2022/06/17 20:10:50;;;;;;;2.83;1.63;;;;;20.60;97089.00;;;;8309178;28;20226;-79
2022/06/17 20:14:53;;;;;;;1.95;1.85;;;;;20.50;97084.00;;;;8313563;28;20729;-81
2022/06/17 20:18:57;;;;;;;2.72;1.40;;;;;20.30;97085.00;;;;8314679;28;20210;-81
2022/06/17 20:23:00;;;;;;;1.95;1.75;;;;;20.20;97089.00;;;;8317243;28;20296;-82
2022/06/17 20:27:06;;;;;;;1.55;1.48;;;;;20.10;97087.00;;;;8319509;28;20285;-80
2022/06/17 20:31:12;;;;;;;1.83;1.70;;;;;20.00;97092.00;;;;8319906;28;20233;-80
2022/06/17 20:35:16;;;;;;;1.88;1.77;;;;;19.90;97081.00;;;;8316638;28;20217;-79
2022/06/17 20:39:25;;;;;;;2.33;1.70;;;;;19.70;97066.00;;;;8318012;28;20276;-78
2022/06/17 20:43:30;;;;;;;2.83;1.70;;;;;19.50;97076.00;;;;8309279;28;20202;-82
2022/06/17 20:51:57;;;;;;;1.85;1.75;;;;;19.10;97072.00;;;;8308079;28;20201;-79
2022/06/17 20:56:02;;;;;;;3.53;2.20;;;;;19.00;97068.00;;;;8312254;28;20617;-82
2022/06/17 21:00:13;;;;;;;3.55;2.30;;;;;19.00;97057.00;;;;8317001;28;20288;-80
2022/06/17 21:04:17;;;;;;;4.00;2.30;;;;;18.90;97056.00;;;;8311774;28;20237;-77
2022/06/17 21:08:23;;;;;;;2.50;2.30;;;;;18.80;97050.00;;;;8314238;28;20683;-81
2022/06/17 21:12:26;;;;;;;2.22;2.10;;;;;18.80;97054.00;;;;8317357;28;20205;-75